Time;durP1;ratioP1;P1;durP2;ratioP2;P2;SDS_P1;SDS_P2;PMS_P1;PMS_P2;Temp;Humidity;BMP_temperature;BMP_pressure;BME280_temperature;BME280_humidity;BME280_pressure;Samples;Min_cycle;Max_cycle;Signal;HPM_P1;HPM_P2
2023/09/25 00:00:55;;;;;;;26.60;14.20;;;;;;;12.57;100.00;101674.20;109612;1252;73094;-71
2023/09/25 00:03:22;;;;;;;23.50;11.30;;;;;;;12.55;100.00;101680.30;109540;1254;60477;-72
2023/09/25 00:05:50;;;;;;;22.20;12.30;;;;;;;12.52;100.00;101687.27;109641;1253;58250;-72
2023/09/25 00:08:17;;;;;;;21.50;13.20;;;;;;;12.50;100.00;101678.12;109542;1252;73262;-71
2023/09/25 00:10:44;;;;;;;26.00;13.00;;;;;;;12.49;100.00;101684.49;109605;1257;62751;-71
2023/09/25 00:13:12;;;;;;;25.10;13.00;;;;;;;12.47;100.00;101685.99;109609;1254;72744;-72
2023/09/25 00:15:44;;;;;;;31.40;13.50;;;;;;;12.45;100.00;101686.60;109617;1254;61690;-71
2023/09/25 00:18:13;;;;;;;27.80;13.50;;;;;;;12.41;100.00;101686.06;109603;1257;58670;-70
2023/09/25 00:20:41;;;;;;;24.80;13.10;;;;;;;12.40;100.00;101686.30;109571;1252;73861;-71
2023/09/25 00:23:08;;;;;;;24.60;13.00;;;;;;;12.38;100.00;101686.06;109571;1254;62462;-71
2023/09/25 00:25:36;;;;;;;20.10;11.70;;;;;;;12.35;100.00;101683.92;109549;1252;72766;-71
2023/09/25 00:28:04;;;;;;;20.80;12.70;;;;;;;12.34;100.00;101685.22;109530;1254;60446;-71
2023/09/25 00:30:31;;;;;;;24.80;12.60;;;;;;;12.33;100.00;101682.32;109445;1253;59996;-71
2023/09/25 00:32:59;;;;;;;21.10;12.70;;;;;;;12.31;100.00;101684.86;109622;1252;72847;-71
2023/09/25 00:35:26;;;;;;;25.60;13.10;;;;;;;12.29;100.00;101686.67;109399;1254;63679;-71
2023/09/25 00:37:54;;;;;;;22.40;12.20;;;;;;;12.28;100.00;101684.83;109587;1254;72703;-71
2023/09/25 00:40:24;;;;;;;21.90;11.90;;;;;;;12.26;100.00;101689.11;109533;1254;64317;-71
2023/09/25 00:42:56;;;;;;;25.50;12.80;;;;;;;12.23;100.00;101681.38;109585;1253;58982;-72
2023/09/25 00:45:23;;;;;;;19.00;11.60;;;;;;;12.21;100.00;101684.80;109543;1254;74018;-72
2023/09/25 00:47:51;;;;;;;21.20;12.40;;;;;;;12.20;100.00;101687.52;109538;1253;62544;-71
2023/09/25 00:50:19;;;;;;;23.50;12.40;;;;;;;12.18;100.00;101683.38;109273;1254;71433;-71
2023/09/25 00:52:46;;;;;;;17.60;13.00;;;;;;;12.18;100.00;101684.98;109636;1251;61693;-72
2023/09/25 00:55:14;;;;;;;24.20;11.90;;;;;;;12.16;100.00;101681.56;109547;1251;58724;-71
2023/09/25 00:57:43;;;;;;;21.70;13.00;;;;;;;12.13;100.00;101684.48;109627;1251;73814;-70
2023/09/25 01:00:11;;;;;;;21.10;12.30;;;;;;;12.12;100.00;101685.45;109615;1250;63998;-71
2023/09/25 01:02:39;;;;;;;24.90;13.20;;;;;;;12.11;100.00;101686.73;109606;1251;71757;-71
2023/09/25 01:05:10;;;;;;;23.30;13.70;;;;;;;12.09;100.00;101687.33;109604;1251;61751;-71
2023/09/25 01:07:38;;;;;;;23.80;12.90;;;;;;;12.07;100.00;101687.10;109681;1251;58826;-71
2023/09/25 01:10:16;;;;;;;27.20;13.70;;;;;;;12.05;100.00;101691.21;109703;1251;73830;-71
2023/09/25 01:12:44;;;;;;;24.20;12.50;;;;;;;12.02;100.00;101693.45;109498;1259;63529;-71
2023/09/25 01:15:15;;;;;;;19.70;12.60;;;;;;;12.00;100.00;101696.20;109628;1256;71632;-71
2023/09/25 01:17:43;;;;;;;22.70;13.30;;;;;;;11.96;100.00;101697.95;109669;1251;60390;-70
2023/09/25 01:20:13;;;;;;;25.30;14.10;;;;;;;11.93;100.00;101701.82;109656;1250;58178;-72
2023/09/25 01:22:42;;;;;;;29.60;17.40;;;;;;;11.90;100.00;101708.23;109662;1250;74359;-71
2023/09/25 01:25:12;;;;;;;28.30;17.30;;;;;;;11.87;100.00;101705.72;109634;1251;63719;-71
2023/09/25 01:27:40;;;;;;;26.90;15.00;;;;;;;11.85;100.00;101710.20;109628;1251;71271;-71
2023/09/25 01:30:09;;;;;;;25.80;16.50;;;;;;;11.82;100.00;101708.39;109577;1257;61755;-72
2023/09/25 01:32:37;;;;;;;26.40;15.30;;;;;;;11.81;100.00;101708.62;109675;1251;58715;-71
2023/09/25 01:35:08;;;;;;;31.00;15.30;;;;;;;11.80;100.00;101709.73;109667;1251;72095;-71
2023/09/25 01:37:35;;;;;;;24.00;14.30;;;;;;;11.79;100.00;101707.86;109543;1251;63726;-71
2023/09/25 01:40:05;;;;;;;22.90;14.20;;;;;;;11.77;100.00;101710.73;109641;1253;72748;-71
2023/09/25 01:42:32;;;;;;;20.90;14.20;;;;;;;11.76;100.00;101712.56;109641;1251;61964;-71
2023/09/25 01:44:59;;;;;;;22.20;14.50;;;;;;;11.73;100.00;101716.74;109529;1251;58740;-71
2023/09/25 01:47:27;;;;;;;23.30;15.50;;;;;;;11.70;100.00;101717.23;109664;1251;73878;-71
2023/09/25 01:49:54;;;;;;;24.50;15.90;;;;;;;11.67;100.00;101719.49;109644;1251;62753;-71
2023/09/25 01:52:22;;;;;;;28.40;15.30;;;;;;;11.63;100.00;101724.36;109605;1251;72770;-72
2023/09/25 01:54:51;;;;;;;23.80;14.60;;;;;;;11.61;100.00;101727.60;109637;1251;61616;-71
2023/09/25 01:57:18;;;;;;;22.10;14.30;;;;;;;11.60;100.00;101726.95;109685;1251;60028;-71
2023/09/25 01:59:46;;;;;;;20.70;14.80;;;;;;;11.60;100.00;101726.27;109672;1251;73874;-72
2023/09/25 02:02:13;;;;;;;24.50;15.50;;;;;;;11.59;100.00;101727.02;109644;1250;62293;-71
2023/09/25 02:04:41;;;;;;;23.10;15.70;;;;;;;11.57;100.00;101726.55;109635;1251;71357;-70
2023/09/25 02:07:09;;;;;;;28.30;15.70;;;;;;;11.56;100.00;101728.55;109606;1254;61767;-71
2023/09/25 02:09:36;;;;;;;22.20;15.00;;;;;;;11.55;100.00;101732.07;109676;1251;61690;-71
2023/09/25 02:12:04;;;;;;;36.20;17.70;;;;;;;11.55;100.00;101732.61;109641;1251;73829;-71
2023/09/25 02:14:32;;;;;;;24.30;16.10;;;;;;;11.54;100.00;101731.47;109660;1251;61977;-71
2023/09/25 02:17:00;;;;;;;23.70;15.00;;;;;;;11.53;100.00;101733.09;109629;1251;71733;-72
2023/09/25 02:19:32;;;;;;;23.40;14.50;;;;;;;11.51;100.00;101736.15;109671;1250;60451;-72
2023/09/25 02:21:59;;;;;;;20.70;13.40;;;;;;;11.48;100.00;101739.44;109518;1251;60055;-71
2023/09/25 02:24:26;;;;;;;23.40;14.60;;;;;;;11.45;100.00;101741.85;109494;1251;72608;-71
2023/09/25 02:26:54;;;;;;;25.00;15.00;;;;;;;11.41;100.00;101747.29;109462;1251;61825;-71
2023/09/25 02:29:22;;;;;;;24.70;14.70;;;;;;;11.38;100.00;101742.67;109641;1251;72923;-71
2023/09/25 02:31:50;;;;;;;28.60;14.90;;;;;;;11.36;100.00;101742.77;109654;1251;60804;-72
2023/09/25 02:34:19;;;;;;;27.30;16.50;;;;;;;11.34;100.00;101743.21;109642;1251;60037;-71
2023/09/25 02:36:46;;;;;;;23.40;15.60;;;;;;;11.32;100.00;101742.61;109595;1250;72964;-71
2023/09/25 02:39:14;;;;;;;24.50;15.80;;;;;;;11.31;100.00;101739.88;109661;1251;63634;-72
2023/09/25 02:41:41;;;;;;;25.40;17.10;;;;;;;11.28;100.00;101737.19;109611;1251;71121;-71
2023/09/25 02:44:09;;;;;;;26.20;16.60;;;;;;;11.24;100.00;101737.34;109605;1254;61682;-71
2023/09/25 02:46:36;;;;;;;29.70;16.80;;;;;;;11.22;100.00;101739.57;109664;1251;58516;-71
2023/09/25 02:49:04;;;;;;;29.20;16.10;;;;;;;11.20;100.00;101738.22;109600;1256;73845;-72
2023/09/25 02:51:32;;;;;;;26.40;18.30;;;;;;;11.18;100.00;101742.84;109539;1251;62276;-71
2023/09/25 02:53:59;;;;;;;25.90;17.90;;;;;;;11.18;100.00;101742.70;109601;1251;71384;-70
2023/09/25 02:56:26;;;;;;;30.30;18.00;;;;;;;11.19;100.00;101749.85;109633;1252;60443;-71
2023/09/25 02:58:54;;;;;;;33.90;16.60;;;;;;;11.19;100.00;101747.73;109618;1251;58896;-71
2023/09/25 03:01:21;;;;;;;28.10;17.00;;;;;;;11.18;100.00;101750.39;109638;1251;75999;-72
2023/09/25 03:03:49;;;;;;;26.30;15.30;;;;;;;11.18;100.00;101753.73;109639;1251;63702;-72
2023/09/25 03:06:16;;;;;;;27.80;16.00;;;;;;;11.15;100.00;101752.27;109626;1251;72727;-71
2023/09/25 03:08:44;;;;;;;29.70;15.90;;;;;;;11.14;100.00;101754.27;109629;1254;60469;-72
2023/09/25 03:11:11;;;;;;;27.80;16.00;;;;;;;11.12;100.00;101756.08;109652;1251;60208;-71
2023/09/25 03:13:39;;;;;;;32.40;16.90;;;;;;;11.10;100.00;101757.40;109637;1251;72584;-72
2023/09/25 03:16:15;;;;;;;27.80;17.20;;;;;;;11.09;100.00;101758.34;109675;1251;63714;-71
2023/09/25 03:18:43;;;;;;;27.50;15.60;;;;;;;11.07;100.00;101761.73;109640;1256;72618;-72
2023/09/25 03:21:11;;;;;;;35.40;18.10;;;;;;;11.06;100.00;101760.89;109410;1251;299402;-71
2023/09/25 03:25:16;;;;;;;35.40;17.40;;;;;;;11.08;100.00;101765.02;102502;1292;602372;-71
2023/09/25 03:27:43;;;;;;;27.40;16.60;;;;;;;11.06;100.00;101765.48;104667;1267;62150;-72
2023/09/25 03:30:10;;;;;;;32.40;17.80;;;;;;;11.05;100.00;101762.19;104899;1270;60008;-72
2023/09/25 03:32:37;;;;;;;26.10;17.30;;;;;;;11.04;100.00;101767.31;104871;1268;72206;-73
2023/09/25 03:35:05;;;;;;;25.20;17.10;;;;;;;11.02;100.00;101768.61;104886;1270;63751;-73
2023/09/25 03:37:32;;;;;;;28.70;17.70;;;;;;;11.00;100.00;101768.18;104534;1263;215513;-74
2023/09/25 03:39:59;;;;;;;27.40;17.00;;;;;;;10.96;100.00;101767.27;105121;1263;60879;-72
2023/09/25 03:42:26;;;;;;;27.20;18.30;;;;;;;10.93;100.00;101769.88;105128;1264;60368;-74
2023/09/25 03:44:53;;;;;;;23.20;17.00;;;;;;;10.89;100.00;101773.02;104943;1264;72221;-74
2023/09/25 03:47:22;;;;;;;31.40;20.70;;;;;;;10.85;100.00;101775.10;105024;1263;62978;-74
2023/09/25 03:49:49;;;;;;;31.10;17.70;;;;;;;10.82;100.00;101773.31;105077;1262;73115;-73
2023/09/25 03:52:15;;;;;;;27.40;18.30;;;;;;;10.79;100.00;101774.27;105010;1267;60973;-75
2023/09/25 03:54:43;;;;;;;29.20;18.80;;;;;;;10.77;100.00;101773.15;105005;1263;60402;-73
2023/09/25 03:57:09;;;;;;;31.00;18.00;;;;;;;10.76;100.00;101777.24;104981;1261;71632;-73
2023/09/25 03:59:36;;;;;;;27.90;18.60;;;;;;;10.74;100.00;101775.02;105176;1265;63904;-71
2023/09/25 04:02:03;;;;;;;28.80;19.60;;;;;;;10.75;100.00;101775.52;105195;1260;72627;-72
2023/09/25 04:04:30;;;;;;;36.60;20.40;;;;;;;10.75;100.00;101778.47;105143;1265;61976;-72
2023/09/25 04:06:57;;;;;;;26.10;17.80;;;;;;;10.77;100.00;101776.85;105508;1256;60260;-72
2023/09/25 04:09:24;;;;;;;37.20;20.20;;;;;;;10.78;100.00;101779.06;105243;1257;71597;-75
2023/09/25 04:11:52;;;;;;;30.60;19.80;;;;;;;10.81;100.00;101780.73;105488;1259;63716;-73
2023/09/25 04:14:19;;;;;;;29.20;19.00;;;;;;;10.83;100.00;101784.45;105520;1259;72792;-72
2023/09/25 04:16:46;;;;;;;40.00;18.70;;;;;;;10.86;100.00;101784.85;105493;1258;60402;-72
2023/09/25 04:19:12;;;;;;;32.50;18.80;;;;;;;10.90;100.00;101787.68;105547;1256;59634;-73
2023/09/25 04:21:40;;;;;;;35.80;20.00;;;;;;;10.93;100.00;101788.94;105614;1256;73066;-73
2023/09/25 04:24:10;;;;;;;32.40;18.90;;;;;;;10.95;100.00;101788.52;105518;1259;64157;-73
2023/09/25 04:26:39;;;;;;;38.80;21.70;;;;;;;10.97;100.00;101788.43;105723;1256;72975;-72
2023/09/25 04:29:12;;;;;;;30.20;20.90;;;;;;;10.99;100.00;101789.36;105575;1259;60553;-75
2023/09/25 04:31:38;;;;;;;41.30;24.50;;;;;;;11.03;100.00;101787.11;105671;1259;59624;-73
2023/09/25 04:34:10;;;;;;;28.10;20.60;;;;;;;11.06;100.00;101788.02;105509;1257;72965;-74
2023/09/25 04:36:37;;;;;;;30.60;19.20;;;;;;;11.10;100.00;101788.19;105453;1260;63868;-74
2023/09/25 04:39:05;;;;;;;28.90;19.50;;;;;;;11.16;100.00;101793.90;105507;1256;71614;-74
2023/09/25 04:41:32;;;;;;;38.60;21.70;;;;;;;11.26;100.00;101792.59;105742;1256;62023;-72
2023/09/25 04:43:59;;;;;;;38.90;22.50;;;;;;;11.37;100.00;101797.01;105786;1251;59660;-74
2023/09/25 04:46:26;;;;;;;36.60;20.60;;;;;;;11.66;100.00;101798.69;105778;1251;73501;-76
2023/09/25 04:48:53;;;;;;;35.60;21.30;;;;;;;12.18;100.00;101797.15;105769;1255;63874;-74
2023/09/25 04:51:20;;;;;;;31.40;21.10;;;;;;;12.79;100.00;101792.45;105888;1251;72649;-72
2023/09/25 04:53:47;;;;;;;36.10;21.70;;;;;;;13.33;100.00;101797.56;105796;1256;60692;-71
2023/09/25 04:56:23;;;;;;;31.90;21.30;;;;;;;13.71;100.00;101798.01;105825;1252;60234;-73
2023/09/25 04:58:50;;;;;;;38.10;22.80;;;;;;;13.94;100.00;101806.94;105823;1251;71650;-75
2023/09/25 05:01:17;;;;;;;35.20;21.40;;;;;;;14.02;100.00;101809.30;105768;1255;63836;-73
2023/09/25 05:03:44;;;;;;;30.30;20.10;;;;;;;14.06;100.00;101810.35;105800;1255;72370;-74
2023/09/25 05:06:11;;;;;;;33.90;21.20;;;;;;;14.11;100.00;101812.15;105839;1255;60499;-73
2023/09/25 05:08:38;;;;;;;28.50;19.50;;;;;;;14.22;100.00;101815.80;105862;1255;59775;-73
2023/09/25 05:11:06;;;;;;;30.60;19.00;;;;;;;14.32;100.00;101817.86;105733;1251;73125;-71
2023/09/25 05:13:34;;;;;;;29.70;19.50;;;;;;;14.39;100.00;101819.05;105880;1255;64002;-75
2023/09/25 05:16:02;;;;;;;34.90;20.40;;;;;;;14.47;100.00;101821.06;105854;1256;72760;-73
2023/09/25 05:18:29;;;;;;;40.20;20.60;;;;;;;14.57;100.00;101817.48;105829;1255;62061;-73
2023/09/25 05:20:59;;;;;;;28.70;19.40;;;;;;;14.85;100.00;101815.20;105905;1253;60411;-76
2023/09/25 05:23:25;;;;;;;29.60;19.20;;;;;;;15.29;100.00;101813.82;105824;1253;73031;-74
2023/09/25 05:25:58;;;;;;;42.80;20.20;;;;;;;15.63;100.00;101816.98;105846;1255;62554;-72
2023/09/25 05:28:25;;;;;;;28.70;18.90;;;;;;;15.82;100.00;101817.94;105867;1251;72705;-74
2023/09/25 05:30:56;;;;;;;40.90;21.10;;;;;;;15.93;100.00;101817.95;105753;1255;61949;-74
2023/09/25 05:33:23;;;;;;;32.40;19.60;;;;;;;16.04;100.00;101822.07;105779;1251;59730;-76
2023/09/25 05:35:49;;;;;;;35.00;19.60;;;;;;;16.18;100.00;101823.41;105902;1251;73080;-75
2023/09/25 05:38:19;;;;;;;31.30;20.70;;;;;;;16.42;100.00;101827.86;105826;1255;63845;-74
2023/09/25 05:40:46;;;;;;;37.20;19.00;;;;;;;16.94;100.00;101824.31;105779;1251;72695;-73
2023/09/25 05:43:13;;;;;;;38.40;20.40;;;;;;;17.67;100.00;101824.35;105763;1252;62027;-74
2023/09/25 05:45:40;;;;;;;40.60;20.50;;;;;;;18.57;100.00;101829.23;105882;1251;60363;-75
2023/09/25 05:48:09;;;;;;;34.00;19.50;;;;;;;19.48;100.00;101833.86;105730;1253;72914;-75
2023/09/25 05:50:36;;;;;;;40.50;19.90;;;;;;;20.36;100.00;101838.16;106052;1253;62682;-75
2023/09/25 05:53:04;;;;;;;33.00;19.70;;;;;;;21.21;100.00;101833.69;105787;1251;72611;-74
2023/09/25 05:55:31;;;;;;;33.00;20.70;;;;;;;22.02;98.15;101834.38;105762;1256;61055;-74
2023/09/25 05:57:58;;;;;;;28.70;20.20;;;;;;;22.76;92.65;101831.42;106013;1255;59647;-76
2023/09/25 06:00:25;;;;;;;27.40;18.30;;;;;;;23.49;87.42;101829.23;106030;1252;73058;-75
2023/09/25 06:02:52;;;;;;;28.40;18.30;;;;;;;24.13;81.15;101826.02;105942;1252;63315;-73
2023/09/25 06:05:19;;;;;;;24.80;16.30;;;;;;;24.74;75.30;101832.20;105917;1251;71729;-75
2023/09/25 06:07:46;;;;;;;30.10;17.70;;;;;;;25.29;67.27;101823.55;105950;1255;61252;-75
2023/09/25 06:10:13;;;;;;;22.30;15.70;;;;;;;25.82;59.81;101825.48;105918;1255;59603;-75
2023/09/25 06:12:43;;;;;;;27.70;14.50;;;;;;;26.35;54.92;101822.05;105772;1251;72899;-77
2023/09/25 06:15:10;;;;;;;26.60;15.80;;;;;;;26.84;49.86;101820.98;105922;1255;63865;-75
2023/09/25 06:17:38;;;;;;;24.10;14.10;;;;;;;27.35;47.65;101817.66;105858;1251;71517;-76
2023/09/25 06:20:13;;;;;;;31.10;15.10;;;;;;;27.86;45.24;101822.59;105724;1255;60322;-73
2023/09/25 06:22:43;;;;;;;18.50;14.20;;;;;;;28.37;43.19;101818.74;105790;1251;60193;-72
2023/09/25 06:25:11;;;;;;;23.80;13.80;;;;;;;28.84;40.29;101819.71;105841;1255;73464;-74
2023/09/25 06:27:39;;;;;;;21.40;13.00;;;;;;;29.25;38.33;101814.71;105813;1255;64381;-73
2023/09/25 06:30:09;;;;;;;17.20;13.30;;;;;;;29.69;36.94;101812.47;105968;1255;72729;-76
2023/09/25 06:32:36;;;;;;;19.10;13.00;;;;;;;30.14;35.82;101813.24;105914;1255;59747;-73
2023/09/25 06:35:06;;;;;;;18.20;12.40;;;;;;;30.49;34.36;101812.22;105831;1253;60300;-75
2023/09/25 06:37:34;;;;;;;21.10;12.50;;;;;;;30.62;33.70;101815.59;105939;1251;71884;-76
2023/09/25 06:40:09;;;;;;;20.90;13.30;;;;;;;30.86;33.48;101820.13;105733;1251;62612;-74
2023/09/25 06:42:37;;;;;;;23.10;12.80;;;;;;;31.04;32.46;101820.33;105763;1256;72730;-75
2023/09/25 06:45:05;;;;;;;18.30;12.90;;;;;;;31.12;32.50;101817.39;105785;1251;60079;-74
2023/09/25 06:47:32;;;;;;;21.80;13.50;;;;;;;31.42;32.22;101814.80;105890;1255;59552;-76
2023/09/25 06:49:59;;;;;;;18.30;13.00;;;;;;;31.67;31.27;101817.27;105878;1251;73082;-73
2023/09/25 06:52:27;;;;;;;22.30;12.40;;;;;;;31.72;31.11;101821.89;105979;1255;63600;-74
2023/09/25 06:54:55;;;;;;;20.40;13.20;;;;;;;31.70;30.55;101829.17;105862;1251;72722;-74
2023/09/25 06:57:21;;;;;;;28.70;13.30;;;;;;;31.58;30.26;101828.76;105872;1251;59744;-74
2023/09/25 06:59:48;;;;;;;23.20;12.50;;;;;;;31.42;30.06;101831.05;105933;1255;59562;-76
2023/09/25 07:02:15;;;;;;;18.80;13.10;;;;;;;31.45;30.06;101833.96;105936;1253;73098;-75
2023/09/25 07:04:42;;;;;;;15.70;12.80;;;;;;;31.47;29.66;101836.01;105861;1255;63536;-74
2023/09/25 07:07:09;;;;;;;21.70;13.50;;;;;;;31.66;30.18;101835.70;105771;1251;73804;-72
2023/09/25 07:09:36;;;;;;;21.30;14.40;;;;;;;31.91;29.43;101836.14;105731;1255;60361;-72
2023/09/25 07:12:03;;;;;;;22.40;14.30;;;;;;;32.14;29.35;101838.23;105872;1253;60180;-76
2023/09/25 07:14:30;;;;;;;21.60;12.00;;;;;;;32.29;28.87;101836.66;105814;1251;72794;-74
2023/09/25 07:16:57;;;;;;;20.60;12.40;;;;;;;32.49;29.05;101838.23;105817;1252;62597;-76
2023/09/25 07:19:24;;;;;;;19.20;12.80;;;;;;;32.72;28.40;101838.02;105844;1255;72759;-74
2023/09/25 07:21:50;;;;;;;21.50;12.70;;;;;;;32.78;27.95;101839.65;105808;1251;59641;-76
2023/09/25 07:24:18;;;;;;;20.10;12.40;;;;;;;32.78;27.75;101840.61;105934;1251;60256;-76
2023/09/25 07:26:45;;;;;;;21.60;12.50;;;;;;;32.75;27.92;101841.86;105918;1255;72835;-76
2023/09/25 07:29:14;;;;;;;20.70;12.20;;;;;;;32.67;27.66;101840.98;105944;1251;62853;-76
2023/09/25 07:31:57;;;;;;;28.80;11.40;;;;;;;32.66;27.57;101841.11;105869;1256;72503;-76
2023/09/25 07:34:23;;;;;;;18.80;11.40;;;;;;;32.78;27.26;101838.15;105773;1251;60550;-76
2023/09/25 07:36:50;;;;;;;18.50;11.80;;;;;;;32.96;27.06;101840.16;105891;1251;60516;-73
2023/09/25 07:39:22;;;;;;;16.20;10.80;;;;;;;33.11;26.94;101837.74;105828;1255;75085;-74
2023/09/25 07:41:52;;;;;;;20.50;11.20;;;;;;;33.20;26.65;101841.08;105806;1255;63955;-76
2023/09/25 07:44:25;;;;;;;14.10;10.40;;;;;;;33.27;26.60;101839.17;105705;1251;72589;-75
2023/09/25 07:46:57;;;;;;;23.50;10.30;;;;;;;33.44;26.50;101834.48;105956;1252;61105;-76
2023/09/25 07:49:30;;;;;;;21.20;10.20;;;;;;;33.59;26.32;101839.24;105790;1251;60547;-75
2023/09/25 07:52:00;;;;;;;17.90;11.30;;;;;;;33.69;26.23;101837.71;105796;1251;72899;-76
2023/09/25 07:54:28;;;;;;;13.10;9.10;;;;;;;33.70;26.15;101836.61;105839;1255;63778;-77
2023/09/25 07:56:55;;;;;;;21.10;10.40;;;;;;;33.88;26.29;101837.90;105705;1258;71848;-75
2023/09/25 07:59:25;;;;;;;14.00;8.40;;;;;;;34.28;25.63;101839.33;105766;1255;60445;-73
2023/09/25 08:01:55;;;;;;;14.80;9.00;;;;;;;34.69;24.60;101836.50;105776;1255;60441;-76
2023/09/25 08:04:22;;;;;;;20.40;10.70;;;;;;;35.05;24.26;101836.89;105846;1251;73941;-76
2023/09/25 08:06:51;;;;;;;20.80;10.00;;;;;;;35.38;24.20;101840.34;105865;1253;62172;-74
2023/09/25 08:12:32;;;;;;;17.50;8.80;;;;;;;35.94;23.76;101836.96;92358;1270;1002966;-74
2023/09/25 08:15:00;;;;;;;12.70;8.60;;;;;;;36.21;23.64;101833.22;104586;1270;60475;-75
2023/09/25 08:17:26;;;;;;;11.50;7.70;;;;;;;36.52;23.32;101834.59;104631;1270;66547;-79
2023/09/25 08:19:54;;;;;;;12.10;8.20;;;;;;;36.77;23.15;101833.30;104577;1276;60878;-75
2023/09/25 08:22:20;;;;;;;14.80;8.20;;;;;;;36.98;22.98;101832.35;104639;1271;65217;-74
2023/09/25 08:24:47;;;;;;;14.20;7.80;;;;;;;37.14;22.29;101831.48;104563;1273;60497;-74
2023/09/25 08:27:14;;;;;;;17.20;8.40;;;;;;;37.28;21.72;101828.77;104771;1270;60580;-77
2023/09/25 08:29:42;;;;;;;15.40;8.90;;;;;;;37.45;21.66;101828.18;104590;1269;65245;-76
2023/09/25 08:32:09;;;;;;;18.20;7.90;;;;;;;37.62;21.55;101825.73;104600;1273;60491;-76
2023/09/25 08:34:36;;;;;;;20.90;9.20;;;;;;;37.75;21.04;101824.27;104589;1273;64994;-78
2023/09/25 08:37:06;;;;;;;12.70;8.10;;;;;;;37.90;21.15;101817.91;104588;1271;60957;-80
2023/09/25 08:39:34;;;;;;;17.90;8.00;;;;;;;38.06;21.15;101816.17;104671;1271;60562;-80
2023/09/25 08:42:01;;;;;;;16.10;8.20;;;;;;;38.24;21.13;101819.66;104534;1273;65247;-77
2023/09/25 08:44:29;;;;;;;20.00;6.50;;;;;;;38.44;20.69;101817.86;104559;1273;60618;-77
2023/09/25 08:46:55;;;;;;;12.60;7.80;;;;;;;38.63;20.64;101823.11;104182;1276;65324;-78
2023/09/25 08:49:22;;;;;;;10.60;7.40;;;;;;;38.79;20.48;101820.02;104438;1270;60661;-79
2023/09/25 08:51:49;;;;;;;16.10;7.50;;;;;;;38.93;20.33;101818.91;104545;1271;60526;-76
2023/09/25 08:54:17;;;;;;;19.90;7.50;;;;;;;39.06;20.24;101822.13;104483;1275;66490;-77
2023/09/25 08:56:45;;;;;;;14.00;6.80;;;;;;;39.13;19.75;101819.79;104559;1273;60464;-80
2023/09/25 08:59:12;;;;;;;11.30;6.40;;;;;;;39.24;19.85;101818.73;104480;1275;64233;-76
2023/09/25 09:01:39;;;;;;;15.90;8.50;;;;;;;39.32;20.00;101817.33;104596;1276;60627;-77
2023/09/25 09:04:07;;;;;;;7.90;5.50;;;;;;;39.35;19.95;101818.67;104663;1270;60533;-76
2023/09/25 09:06:34;;;;;;;12.70;7.60;;;;;;;39.28;19.54;101813.45;104626;1273;74139;-78
2023/09/25 09:09:01;;;;;;;8.30;6.40;;;;;;;39.19;19.55;101813.60;104572;1273;60499;-78
2023/09/25 09:11:28;;;;;;;12.60;5.80;;;;;;;39.23;19.70;101811.52;104553;1270;73107;-79
2023/09/25 09:13:57;;;;;;;10.80;6.40;;;;;;;39.36;19.57;101814.48;104576;1269;60497;-81
2023/09/25 09:16:24;;;;;;;10.00;6.50;;;;;;;39.48;19.63;101811.99;104538;1270;60494;-79
2023/09/25 09:19:05;;;;;;;13.60;6.80;;;;;;;39.58;19.27;101811.02;104538;1270;65356;-77
2023/09/25 09:21:33;;;;;;;11.90;5.60;;;;;;;39.61;18.93;101804.45;104496;1276;60479;-77
2023/09/25 09:24:00;;;;;;;10.40;6.20;;;;;;;39.60;18.90;101807.30;104596;1273;64221;-78
2023/09/25 09:26:27;;;;;;;15.60;5.80;;;;;;;39.66;18.90;101804.94;104602;1273;60476;-82
2023/09/25 09:28:54;;;;;;;11.50;5.50;;;;;;;39.76;18.90;101803.78;104614;1271;60471;-77
2023/09/25 09:31:22;;;;;;;10.90;5.50;;;;;;;39.86;18.70;101798.85;104510;1269;66126;-77
2023/09/25 09:33:48;;;;;;;13.20;5.90;;;;;;;39.91;18.82;101796.05;104508;1270;60476;-79
2023/09/25 09:36:15;;;;;;;11.10;5.00;;;;;;;40.03;18.56;101794.06;104534;1272;64074;-78
2023/09/25 09:38:42;;;;;;;13.00;5.30;;;;;;;40.18;18.45;101790.83;104490;1273;60660;-78
2023/09/25 09:41:09;;;;;;;7.10;4.10;;;;;;;40.25;18.43;101791.23;104514;1270;60449;-79
2023/09/25 09:43:36;;;;;;;8.70;4.10;;;;;;;40.24;17.96;101790.43;104672;1270;72879;-79
2023/09/25 09:46:03;;;;;;;11.60;3.70;;;;;;;40.16;18.28;101788.95;104702;1273;60475;-78
2023/09/25 09:48:32;;;;;;;10.20;3.70;;;;;;;40.10;18.21;101789.60;104664;1271;62698;-76
2023/09/25 09:51:02;;;;;;;14.40;4.40;;;;;;;40.09;17.92;101785.54;104554;1270;60475;-77
2023/09/25 09:53:34;;;;;;;4.70;3.30;;;;;;;39.98;17.88;101778.30;104713;1272;60911;-78
2023/09/25 09:56:01;;;;;;;6.10;3.70;;;;;;;39.80;18.13;101774.42;104459;1271;66215;-80
2023/09/25 09:58:28;;;;;;;8.50;3.70;;;;;;;39.73;18.11;101776.46;104675;1272;60583;-76
2023/09/25 10:00:55;;;;;;;4.80;3.10;;;;;;;39.75;17.94;101773.72;104463;1273;64198;-78
2023/09/25 10:03:23;;;;;;;4.50;2.40;;;;;;;39.83;17.83;101773.16;104499;1273;60488;-77
2023/09/25 10:05:51;;;;;;;4.50;2.60;;;;;;;39.87;17.78;101777.83;104537;1273;60504;-77
2023/09/25 10:08:18;;;;;;;9.00;3.30;;;;;;;39.81;17.61;101775.88;104473;1268;66114;-78
2023/09/25 10:10:49;;;;;;;4.60;2.00;;;;;;;39.75;17.64;101770.48;104477;1271;60840;-80
2023/09/25 10:13:25;;;;;;;3.70;2.50;;;;;;;39.66;17.51;101767.31;104530;1271;63886;-78
2023/09/25 10:15:56;;;;;;;6.70;2.50;;;;;;;39.55;17.72;101763.31;104383;1274;60599;-76
2023/09/25 10:18:26;;;;;;;4.90;2.70;;;;;;;39.51;17.88;101767.29;104525;1270;60482;-78
2023/09/25 10:21:14;;;;;;;6.70;2.40;;;;;;;39.45;17.85;101762.77;104527;1273;65104;-79
2023/09/25 10:23:48;;;;;;;5.80;2.60;;;;;;;39.43;17.78;101757.73;104407;1273;60491;-79
2023/09/25 10:26:20;;;;;;;7.50;2.60;;;;;;;39.46;17.53;101755.80;104822;1273;65095;-78
2023/09/25 10:28:58;;;;;;;6.00;2.40;;;;;;;39.48;17.59;101754.89;104555;1276;60494;-80
2023/09/25 10:31:29;;;;;;;5.00;2.80;;;;;;;39.43;17.69;101751.92;104679;1273;60478;-80
2023/09/25 10:34:00;;;;;;;5.00;2.90;;;;;;;39.35;17.78;101751.48;104678;1270;66166;-77
2023/09/25 10:36:54;;;;;;;;;;;;;;;39.33;17.79;101752.47;104612;1273;64006;-78
2023/09/25 10:39:21;;;;;;;4.20;2.40;;;;;;;39.27;17.50;101748.66;104160;1278;64171;-76
2023/09/25 10:41:57;;;;;;;10.20;2.90;;;;;;;39.14;17.66;101747.96;104285;1279;60668;-80
2023/09/25 10:44:25;;;;;;;7.70;2.90;;;;;;;39.10;17.64;101749.71;104063;1276;60495;-80
2023/09/25 10:46:51;;;;;;;5.10;2.60;;;;;;;39.08;17.68;101745.59;104088;1273;63839;-78
2023/09/25 10:49:18;;;;;;;6.70;2.40;;;;;;;39.10;17.59;101736.70;104264;1280;60541;-81
2023/09/25 10:51:48;;;;;;;10.40;3.20;;;;;;;39.19;17.60;101740.77;103961;1278;64127;-78
2023/09/25 10:54:15;;;;;;;7.20;3.10;;;;;;;39.22;16.86;101735.48;104111;1277;60549;-79
2023/09/25 10:56:42;;;;;;;6.90;2.80;;;;;;;39.08;16.76;101730.81;104233;1276;61028;-75
2023/09/25 10:59:08;;;;;;;3.40;2.10;;;;;;;38.89;16.76;101725.67;104112;1279;65248;-80
2023/09/25 11:01:35;;;;;;;5.70;2.60;;;;;;;38.70;16.98;101719.79;103862;1282;60482;-78
2023/09/25 11:04:03;;;;;;;4.00;3.00;;;;;;;38.56;17.17;101721.02;103885;1276;64814;-78
2023/09/25 11:06:33;;;;;;;5.40;3.20;;;;;;;38.48;17.50;101718.70;104208;1275;60762;-75
2023/09/25 11:09:11;;;;;;;6.30;3.30;;;;;;;38.42;17.84;101718.81;104021;1280;60575;-77
2023/09/25 11:11:40;;;;;;;3.60;2.50;;;;;;;38.40;18.08;101717.85;104269;1274;65298;-78